sensor_id;sensor_type;location;lat;lon;timestamp;pressure;altitude;pressure_sealevel;temperature;humidity
11523;BME280;40093;43.224;27.910;2023-02-21T00:00:19;100472.41;;;6.51;87.15
11523;BME280;40093;43.224;27.910;2023-02-21T00:03:03;100485.13;;;6.59;87.11
11523;BME280;40093;43.224;27.910;2023-02-21T00:05:48;100483.09;;;6.56;86.59
11523;BME280;40093;43.224;27.910;2023-02-21T00:08:32;100475.63;;;6.41;87.76
11523;BME280;40093;43.224;27.910;2023-02-21T00:11:16;100472.84;;;6.26;88.36
11523;BME280;40093;43.224;27.910;2023-02-21T00:14:00;100477.66;;;6.29;88.92
11523;BME280;40093;43.224;27.910;2023-02-21T00:16:46;100471.91;;;6.34;89.49
11523;BME280;40093;43.224;27.910;2023-02-21T00:19:30;100465.09;;;6.28;89.62
11523;BME280;40093;43.224;27.910;2023-02-21T00:22:15;100463.38;;;6.35;89.53
11523;BME280;40093;43.224;27.910;2023-02-21T00:24:59;100455.06;;;6.32;90.39
11523;BME280;40093;43.224;27.910;2023-02-21T00:27:43;100445.72;;;6.33;90.46
11523;BME280;40093;43.224;27.910;2023-02-21T00:30:27;100442.16;;;6.44;90.29
11523;BME280;40093;43.224;27.910;2023-02-21T00:33:13;100440.75;;;6.50;90.09
11523;BME280;40093;43.224;27.910;2023-02-21T00:35:58;100433.97;;;6.44;89.96
11523;BME280;40093;43.224;27.910;2023-02-21T00:38:42;100435.91;;;6.59;90.08
11523;BME280;40093;43.224;27.910;2023-02-21T00:41:26;100416.66;;;6.40;90.71
11523;BME280;40093;43.224;27.910;2023-02-21T00:44:10;100424.53;;;6.57;90.62
11523;BME280;40093;43.224;27.910;2023-02-21T00:46:55;100424.69;;;6.64;90.55
11523;BME280;40093;43.224;27.910;2023-02-21T00:49:41;100423.41;;;6.74;90.53
11523;BME280;40093;43.224;27.910;2023-02-21T00:52:25;100424.47;;;6.85;91.04
11523;BME280;40093;43.224;27.910;2023-02-21T00:55:08;100411.22;;;6.71;90.43
11523;BME280;40093;43.224;27.910;2023-02-21T00:57:53;100414.25;;;6.82;90.31
11523;BME280;40093;43.224;27.910;2023-02-21T01:00:37;100410.69;;;6.81;90.71
11523;BME280;40093;43.224;27.910;2023-02-21T01:03:21;100384.84;;;6.63;90.94
11523;BME280;40093;43.224;27.910;2023-02-21T01:06:09;100418.56;;;6.83;90.90
11523;BME280;40093;43.224;27.910;2023-02-21T01:08:54;100400.28;;;6.87;90.83
11523;BME280;40093;43.224;27.910;2023-02-21T01:11:38;100409.75;;;6.89;90.84
11523;BME280;40093;43.224;27.910;2023-02-21T01:14:23;100402.16;;;6.98;90.89
11523;BME280;40093;43.224;27.910;2023-02-21T01:17:07;100393.13;;;6.98;90.86
11523;BME280;40093;43.224;27.910;2023-02-21T01:19:51;100390.75;;;6.96;90.81
11523;BME280;40093;43.224;27.910;2023-02-21T01:22:37;100396.75;;;6.86;91.24
11523;BME280;40093;43.224;27.910;2023-02-21T01:25:22;100391.81;;;6.92;91.19
11523;BME280;40093;43.224;27.910;2023-02-21T01:28:06;100383.16;;;6.90;91.24
11523;BME280;40093;43.224;27.910;2023-02-21T01:30:51;100349.03;;;6.68;91.75
11523;BME280;40093;43.224;27.910;2023-02-21T01:33:37;100370.47;;;6.66;93.00
11523;BME280;40093;43.224;27.910;2023-02-21T01:36:22;100357.78;;;6.58;93.91
11523;BME280;40093;43.224;27.910;2023-02-21T01:39:08;100364.50;;;6.61;94.83
11523;BME280;40093;43.224;27.910;2023-02-21T01:41:52;100342.34;;;6.50;95.63
11523;BME280;40093;43.224;27.910;2023-02-21T01:44:39;100343.56;;;6.53;95.85
11523;BME280;40093;43.224;27.910;2023-02-21T01:47:24;100346.56;;;6.63;96.12
11523;BME280;40093;43.224;27.910;2023-02-21T01:50:13;100347.09;;;6.69;95.88
11523;BME280;40093;43.224;27.910;2023-02-21T01:53:01;100330.06;;;6.60;96.55
11523;BME280;40093;43.224;27.910;2023-02-21T01:55:47;100338.97;;;6.72;96.78
11523;BME280;40093;43.224;27.910;2023-02-21T01:58:32;100328.75;;;6.85;96.58
11523;BME280;40093;43.224;27.910;2023-02-21T02:01:24;100308.91;;;6.72;96.39
11523;BME280;40093;43.224;27.910;2023-02-21T02:04:10;100307.81;;;6.92;95.69
11523;BME280;40093;43.224;27.910;2023-02-21T02:06:54;100299.53;;;6.89;95.74
11523;BME280;40093;43.224;27.910;2023-02-21T02:09:39;100302.78;;;6.94;95.47
11523;BME280;40093;43.224;27.910;2023-02-21T02:13:02;100299.06;;;7.02;94.93
11523;BME280;40093;43.224;27.910;2023-02-21T02:15:39;100294.78;;;7.20;93.74
11523;BME280;40093;43.224;27.910;2023-02-21T02:18:36;100294.16;;;7.45;91.90
11523;BME280;40093;43.224;27.910;2023-02-21T02:27:44;100302.06;;;8.11;86.55
11523;BME280;40093;43.224;27.910;2023-02-21T02:30:44;100283.31;;;8.13;85.97
11523;BME280;40093;43.224;27.910;2023-02-21T02:36:26;100253.06;;;8.28;83.96
11523;BME280;40093;43.224;27.910;2023-02-21T02:39:00;100268.34;;;8.52;82.65
11523;BME280;40093;43.224;27.910;2023-02-21T02:41:37;100248.13;;;8.60;81.88
11523;BME280;40093;43.224;27.910;2023-02-21T02:44:14;100256.09;;;8.68;81.00
11523;BME280;40093;43.224;27.910;2023-02-21T02:46:47;100263.25;;;8.76;80.43
11523;BME280;40093;43.224;27.910;2023-02-21T02:49:18;100260.25;;;8.85;80.10
11523;BME280;40093;43.224;27.910;2023-02-21T02:51:48;100283.84;;;8.89;79.63
11523;BME280;40093;43.224;27.910;2023-02-21T02:54:15;100283.91;;;8.93;79.08
11523;BME280;40093;43.224;27.910;2023-02-21T02:56:43;100283.25;;;9.03;78.10
11523;BME280;40093;43.224;27.910;2023-02-21T02:59:12;100291.56;;;9.10;77.56
11523;BME280;40093;43.224;27.910;2023-02-21T03:02:00;100279.47;;;9.14;77.21
11523;BME280;40093;43.224;27.910;2023-02-21T03:04:47;100274.81;;;9.15;76.90
11523;BME280;40093;43.224;27.910;2023-02-21T03:07:24;100276.28;;;9.09;76.90
11523;BME280;40093;43.224;27.910;2023-02-21T03:10:12;100257.44;;;9.07;76.75
11523;BME280;40093;43.224;27.910;2023-02-21T03:12:46;100265.41;;;9.16;76.42
11523;BME280;40093;43.224;27.910;2023-02-21T03:15:17;100258.63;;;9.10;76.31
11523;BME280;40093;43.224;27.910;2023-02-21T03:17:52;100250.38;;;9.06;75.90
11523;BME280;40093;43.224;27.910;2023-02-21T03:20:20;100260.56;;;9.06;76.26
11523;BME280;40093;43.224;27.910;2023-02-21T03:22:50;100262.88;;;9.04;76.39
11523;BME280;40093;43.224;27.910;2023-02-21T03:25:20;100262.53;;;9.09;76.27
11523;BME280;40093;43.224;27.910;2023-02-21T03:27:48;100273.97;;;9.11;76.08
11523;BME280;40093;43.224;27.910;2023-02-21T03:30:17;100268.38;;;9.04;76.16
11523;BME280;40093;43.224;27.910;2023-02-21T03:32:47;100267.69;;;9.10;75.91
11523;BME280;40093;43.224;27.910;2023-02-21T03:35:16;100271.53;;;9.06;75.85
11523;BME280;40093;43.224;27.910;2023-02-21T03:37:45;100268.44;;;9.07;75.69
11523;BME280;40093;43.224;27.910;2023-02-21T03:40:16;100264.13;;;9.10;75.59
11523;BME280;40093;43.224;27.910;2023-02-21T03:42:43;100270.00;;;9.08;75.77
11523;BME280;40093;43.224;27.910;2023-02-21T03:45:10;100273.97;;;9.11;75.43
11523;BME280;40093;43.224;27.910;2023-02-21T03:47:37;100284.09;;;9.07;75.59
11523;BME280;40093;43.224;27.910;2023-02-21T03:50:05;100285.31;;;9.09;75.44
11523;BME280;40093;43.224;27.910;2023-02-21T03:52:32;100291.50;;;9.03;75.40
11523;BME280;40093;43.224;27.910;2023-02-21T03:54:59;100279.34;;;9.04;75.27
11523;BME280;40093;43.224;27.910;2023-02-21T03:57:27;100281.25;;;9.00;75.14
11523;BME280;40093;43.224;27.910;2023-02-21T03:59:54;100277.72;;;8.99;75.21
11523;BME280;40093;43.224;27.910;2023-02-21T04:02:23;100276.06;;;8.95;74.87
11523;BME280;40093;43.224;27.910;2023-02-21T04:04:50;100280.59;;;9.10;74.82
11523;BME280;40093;43.224;27.910;2023-02-21T04:07:18;100275.56;;;9.12;74.31
11523;BME280;40093;43.224;27.910;2023-02-21T04:09:45;100277.84;;;9.10;74.21
11523;BME280;40093;43.224;27.910;2023-02-21T04:12:13;100277.84;;;9.10;74.22
11523;BME280;40093;43.224;27.910;2023-02-21T04:14:41;100263.72;;;9.08;74.08
11523;BME280;40093;43.224;27.910;2023-02-21T04:17:08;100263.41;;;9.13;73.73
11523;BME280;40093;43.224;27.910;2023-02-21T04:19:35;100260.66;;;9.13;73.81
11523;BME280;40093;43.224;27.910;2023-02-21T04:22:02;100249.72;;;9.16;73.15
11523;BME280;40093;43.224;27.910;2023-02-21T04:24:29;100239.63;;;9.24;72.86
11523;BME280;40093;43.224;27.910;2023-02-21T04:26:56;100240.50;;;9.31;72.55
11523;BME280;40093;43.224;27.910;2023-02-21T04:29:23;100245.28;;;9.38;72.19
11523;BME280;40093;43.224;27.910;2023-02-21T04:31:51;100243.41;;;9.45;71.52
11523;BME280;40093;43.224;27.910;2023-02-21T04:34:20;100229.22;;;9.40;71.71
11523;BME280;40093;43.224;27.910;2023-02-21T04:36:46;100230.13;;;9.51;71.08
11523;BME280;40093;43.224;27.910;2023-02-21T04:39:13;100235.31;;;9.56;71.08
11523;BME280;40093;43.224;27.910;2023-02-21T04:41:41;100229.06;;;9.59;70.58
11523;BME280;40093;43.224;27.910;2023-02-21T04:44:08;100233.88;;;9.69;70.45
11523;BME280;40093;43.224;27.910;2023-02-21T04:46:35;100225.22;;;9.67;70.58
11523;BME280;40093;43.224;27.910;2023-02-21T04:49:04;100225.22;;;9.67;69.90
11523;BME280;40093;43.224;27.910;2023-02-21T04:51:31;100223.44;;;9.81;69.84
11523;BME280;40093;43.224;27.910;2023-02-21T04:53:57;100219.91;;;9.84;69.55
11523;BME280;40093;43.224;27.910;2023-02-21T04:56:25;100227.03;;;9.88;69.42
11523;BME280;40093;43.224;27.910;2023-02-21T04:58:53;100227.44;;;9.90;68.94
11523;BME280;40093;43.224;27.910;2023-02-21T05:01:20;100237.66;;;9.93;68.94
11523;BME280;40093;43.224;27.910;2023-02-21T05:03:47;100227.84;;;9.92;68.66
11523;BME280;40093;43.224;27.910;2023-02-21T05:06:20;100216.44;;;9.90;68.79
11523;BME280;40093;43.224;27.910;2023-02-21T05:08:47;100216.13;;;9.99;68.50
11523;BME280;40093;43.224;27.910;2023-02-21T05:11:15;100208.28;;;9.97;68.39
11523;BME280;40093;43.224;27.910;2023-02-21T05:13:42;100229.19;;;10.05;68.31
11523;BME280;40093;43.224;27.910;2023-02-21T05:16:10;100224.13;;;10.11;67.75
11523;BME280;40093;43.224;27.910;2023-02-21T05:18:37;100228.53;;;10.19;67.63
11523;BME280;40093;43.224;27.910;2023-02-21T05:21:05;100244.56;;;10.13;67.43
11523;BME280;40093;43.224;27.910;2023-02-21T05:23:34;100242.59;;;10.10;67.56
11523;BME280;40093;43.224;27.910;2023-02-21T05:26:02;100253.63;;;10.14;67.56
11523;BME280;40093;43.224;27.910;2023-02-21T05:28:30;100219.38;;;10.08;67.65
11523;BME280;40093;43.224;27.910;2023-02-21T05:30:57;100221.06;;;10.19;67.38
11523;BME280;40093;43.224;27.910;2023-02-21T05:33:24;100229.38;;;10.23;67.55
11523;BME280;40093;43.224;27.910;2023-02-21T05:35:51;100227.41;;;10.27;67.31
11523;BME280;40093;43.224;27.910;2023-02-21T05:38:20;100228.25;;;10.34;66.91
11523;BME280;40093;43.224;27.910;2023-02-21T05:40:48;100221.22;;;10.37;66.76
11523;BME280;40093;43.224;27.910;2023-02-21T05:43:15;100239.41;;;10.52;66.23
11523;BME280;40093;43.224;27.910;2023-02-21T05:45:42;100242.25;;;10.62;66.09
11523;BME280;40093;43.224;27.910;2023-02-21T05:48:09;100236.41;;;10.71;65.66
11523;BME280;40093;43.224;27.910;2023-02-21T05:50:36;100239.59;;;10.76;64.98
11523;BME280;40093;43.224;27.910;2023-02-21T05:53:04;100243.97;;;10.84;64.98
11523;BME280;40093;43.224;27.910;2023-02-21T05:55:31;100235.78;;;10.95;64.87
11523;BME280;40093;43.224;27.910;2023-02-21T05:57:59;100244.13;;;11.09;63.90
11523;BME280;40093;43.224;27.910;2023-02-21T06:00:27;100243.84;;;11.31;63.63
11523;BME280;40093;43.224;27.910;2023-02-21T06:02:55;100248.63;;;11.48;62.86
11523;BME280;40093;43.224;27.910;2023-02-21T06:05:22;100246.00;;;11.69;61.94
11523;BME280;40093;43.224;27.910;2023-02-21T06:07:50;100241.72;;;11.93;60.80
11523;BME280;40093;43.224;27.910;2023-02-21T06:10:17;100232.28;;;12.18;60.33
11523;BME280;40093;43.224;27.910;2023-02-21T06:12:45;100245.72;;;12.47;59.28
11523;BME280;40093;43.224;27.910;2023-02-21T06:15:13;100241.78;;;12.73;58.13
11523;BME280;40093;43.224;27.910;2023-02-21T06:17:41;100251.19;;;12.93;57.52
11523;BME280;40093;43.224;27.910;2023-02-21T06:20:10;100254.31;;;13.19;56.89
11523;BME280;40093;43.224;27.910;2023-02-21T06:22:38;100253.03;;;13.45;56.39
11523;BME280;40093;43.224;27.910;2023-02-21T06:25:06;100245.47;;;13.63;55.58
11523;BME280;40093;43.224;27.910;2023-02-21T06:27:34;100260.44;;;13.72;54.84
11523;BME280;40093;43.224;27.910;2023-02-21T06:30:01;100264.34;;;13.85;54.43
11523;BME280;40093;43.224;27.910;2023-02-21T06:32:29;100269.81;;;13.92;54.31
11523;BME280;40093;43.224;27.910;2023-02-21T06:34:56;100267.78;;;14.00;54.18
11523;BME280;40093;43.224;27.910;2023-02-21T06:37:23;100266.16;;;14.13;54.17
11523;BME280;40093;43.224;27.910;2023-02-21T06:39:50;100248.34;;;14.14;53.70
11523;BME280;40093;43.224;27.910;2023-02-21T06:42:17;100257.81;;;14.20;53.37
11523;BME280;40093;43.224;27.910;2023-02-21T06:44:44;100239.59;;;14.26;53.55
11523;BME280;40093;43.224;27.910;2023-02-21T06:47:12;100261.66;;;14.36;53.35
11523;BME280;40093;43.224;27.910;2023-02-21T06:49:40;100260.25;;;14.11;53.85
11523;BME280;40093;43.224;27.910;2023-02-21T06:52:08;100261.84;;;14.05;54.65
11523;BME280;40093;43.224;27.910;2023-02-21T06:54:35;100250.69;;;14.15;54.46
11523;BME280;40093;43.224;27.910;2023-02-21T06:57:02;100255.38;;;14.29;53.43
11523;BME280;40093;43.224;27.910;2023-02-21T06:59:30;100253.56;;;13.98;53.40
11523;BME280;40093;43.224;27.910;2023-02-21T07:01:57;100254.34;;;14.05;53.61
11523;BME280;40093;43.224;27.910;2023-02-21T07:04:24;100256.94;;;14.30;53.38
11523;BME280;40093;43.224;27.910;2023-02-21T07:06:53;100248.09;;;14.52;52.33
11523;BME280;40093;43.224;27.910;2023-02-21T07:09:19;100249.63;;;14.60;52.53
11523;BME280;40093;43.224;27.910;2023-02-21T07:11:46;100260.44;;;14.85;51.70
11523;BME280;40093;43.224;27.910;2023-02-21T07:14:15;100252.59;;;14.80;51.32
11523;BME280;40093;43.224;27.910;2023-02-21T07:16:42;100241.06;;;14.85;51.53
11523;BME280;40093;43.224;27.910;2023-02-21T07:19:10;100227.19;;;14.85;51.08
11523;BME280;40093;43.224;27.910;2023-02-21T07:21:40;100234.88;;;15.10;50.65
11523;BME280;40093;43.224;27.910;2023-02-21T07:24:08;100225.41;;;15.45;50.05
11523;BME280;40093;43.224;27.910;2023-02-21T07:26:35;100220.63;;;15.45;50.02
11523;BME280;40093;43.224;27.910;2023-02-21T07:29:03;100227.47;;;15.67;49.70
11523;BME280;40093;43.224;27.910;2023-02-21T07:31:30;100221.94;;;15.94;48.80
11523;BME280;40093;43.224;27.910;2023-02-21T07:33:57;100209.75;;;16.14;48.06
11523;BME280;40093;43.224;27.910;2023-02-21T07:36:24;100221.00;;;16.30;47.84
11523;BME280;40093;43.224;27.910;2023-02-21T07:38:51;100214.06;;;16.45;47.02
11523;BME280;40093;43.224;27.910;2023-02-21T07:41:19;100208.00;;;16.24;46.90
11523;BME280;40093;43.224;27.910;2023-02-21T07:43:46;100207.03;;;16.37;46.58
11523;BME280;40093;43.224;27.910;2023-02-21T07:46:14;100207.53;;;16.29;46.61
11523;BME280;40093;43.224;27.910;2023-02-21T07:48:41;100198.13;;;15.96;47.30
11523;BME280;40093;43.224;27.910;2023-02-21T07:51:09;100204.63;;;15.86;46.84
11523;BME280;40093;43.224;27.910;2023-02-21T07:53:36;100201.03;;;15.86;46.80
11523;BME280;40093;43.224;27.910;2023-02-21T07:56:03;100194.84;;;15.75;46.84
11523;BME280;40093;43.224;27.910;2023-02-21T07:58:32;100188.91;;;15.76;46.75
11523;BME280;40093;43.224;27.910;2023-02-21T08:01:01;100186.75;;;15.87;46.32
11523;BME280;40093;43.224;27.910;2023-02-21T08:03:28;100182.41;;;15.86;46.23
11523;BME280;40093;43.224;27.910;2023-02-21T08:05:56;100171.28;;;15.90;46.52
11523;BME280;40093;43.224;27.910;2023-02-21T08:08:23;100180.47;;;15.83;46.65
11523;BME280;40093;43.224;27.910;2023-02-21T08:10:50;100176.34;;;15.95;46.50
11523;BME280;40093;43.224;27.910;2023-02-21T08:13:17;100164.72;;;16.03;46.08
11523;BME280;40093;43.224;27.910;2023-02-21T08:15:47;100174.50;;;16.11;45.77
11523;BME280;40093;43.224;27.910;2023-02-21T08:18:14;100163.63;;;16.20;45.84
11523;BME280;40093;43.224;27.910;2023-02-21T08:20:45;100173.13;;;16.23;46.15
11523;BME280;40093;43.224;27.910;2023-02-21T08:23:12;100160.69;;;16.31;45.78
11523;BME280;40093;43.224;27.910;2023-02-21T08:25:39;100146.66;;;16.41;45.73
11523;BME280;40093;43.224;27.910;2023-02-21T08:28:06;100147.00;;;16.66;45.01
11523;BME280;40093;43.224;27.910;2023-02-21T08:30:33;100151.31;;;17.10;44.73
11523;BME280;40093;43.224;27.910;2023-02-21T08:33:02;100147.97;;;17.38;43.80
11523;BME280;40093;43.224;27.910;2023-02-21T08:35:29;100142.16;;;17.48;43.51
11523;BME280;40093;43.224;27.910;2023-02-21T08:37:56;100134.41;;;17.75;42.76
11523;BME280;40093;43.224;27.910;2023-02-21T08:40:28;100119.28;;;17.76;42.16
11523;BME280;40093;43.224;27.910;2023-02-21T08:42:57;100135.53;;;17.77;42.29
11523;BME280;40093;43.224;27.910;2023-02-21T08:45:25;100134.84;;;17.73;42.19
11523;BME280;40093;43.224;27.910;2023-02-21T08:47:52;100123.47;;;17.84;41.79
11523;BME280;40093;43.224;27.910;2023-02-21T08:50:22;100107.16;;;17.51;42.30
11523;BME280;40093;43.224;27.910;2023-02-21T08:52:50;100136.59;;;17.48;42.48
11523;BME280;40093;43.224;27.910;2023-02-21T08:55:18;100133.03;;;17.28;42.92
11523;BME280;40093;43.224;27.910;2023-02-21T08:57:47;100130.69;;;17.46;42.69
11523;BME280;40093;43.224;27.910;2023-02-21T09:00:15;100136.59;;;17.48;42.54
11523;BME280;40093;43.224;27.910;2023-02-21T09:02:42;100125.41;;;17.52;42.14
11523;BME280;40093;43.224;27.910;2023-02-21T09:05:11;100133.41;;;17.50;42.53
11523;BME280;40093;43.224;27.910;2023-02-21T09:07:39;100125.53;;;17.64;42.24
11523;BME280;40093;43.224;27.910;2023-02-21T09:10:07;100127.22;;;17.42;42.67
11523;BME280;40093;43.224;27.910;2023-02-21T09:12:35;100131.03;;;17.48;42.65
11523;BME280;40093;43.224;27.910;2023-02-21T09:15:02;100113.94;;;17.30;42.81
11523;BME280;40093;43.224;27.910;2023-02-21T09:17:29;100110.88;;;17.25;42.92
11523;BME280;40093;43.224;27.910;2023-02-21T09:19:58;100113.47;;;17.16;43.05
11523;BME280;40093;43.224;27.910;2023-02-21T09:22:25;100120.59;;;17.17;42.97
11523;BME280;40093;43.224;27.910;2023-02-21T09:24:54;100123.72;;;17.19;42.80
11523;BME280;40093;43.224;27.910;2023-02-21T09:27:21;100108.84;;;17.09;43.09
11523;BME280;40093;43.224;27.910;2023-02-21T09:30:02;100104.94;;;17.23;42.85
11523;BME280;40093;43.224;27.910;2023-02-21T09:32:29;100090.00;;;17.36;42.39
11523;BME280;40093;43.224;27.910;2023-02-21T09:34:56;100096.97;;;17.44;42.47
11523;BME280;40093;43.224;27.910;2023-02-21T09:37:23;100093.59;;;17.53;41.90
11523;BME280;40093;43.224;27.910;2023-02-21T09:39:51;100082.53;;;17.49;41.91
11523;BME280;40093;43.224;27.910;2023-02-21T09:42:21;100071.94;;;17.25;42.04
11523;BME280;40093;43.224;27.910;2023-02-21T09:44:50;100089.25;;;17.32;42.17
11523;BME280;40093;43.224;27.910;2023-02-21T09:47:24;100065.16;;;17.45;41.99
11523;BME280;40093;43.224;27.910;2023-02-21T09:49:57;100063.41;;;17.51;41.78
11523;BME280;40093;43.224;27.910;2023-02-21T09:52:31;100067.00;;;17.32;41.79
11523;BME280;40093;43.224;27.910;2023-02-21T09:55:07;100071.22;;;17.40;41.58
11523;BME280;40093;43.224;27.910;2023-02-21T09:57:37;100063.25;;;17.42;41.78
11523;BME280;40093;43.224;27.910;2023-02-21T10:00:15;100046.63;;;17.55;41.32
11523;BME280;40093;43.224;27.910;2023-02-21T10:02:52;100043.25;;;17.63;41.53
11523;BME280;40093;43.224;27.910;2023-02-21T10:05:30;100035.69;;;17.63;41.49
11523;BME280;40093;43.224;27.910;2023-02-21T10:08:05;100027.34;;;17.63;41.11
11523;BME280;40093;43.224;27.910;2023-02-21T10:10:41;100027.88;;;17.74;40.62
11523;BME280;40093;43.224;27.910;2023-02-21T10:13:21;100004.28;;;17.79;40.11
11523;BME280;40093;43.224;27.910;2023-02-21T10:15:54;99996.44;;;17.90;39.58
11523;BME280;40093;43.224;27.910;2023-02-21T10:18:31;99986.69;;;17.98;39.35
11523;BME280;40093;43.224;27.910;2023-02-21T10:21:02;99961.31;;;17.96;39.15
11523;BME280;40093;43.224;27.910;2023-02-21T10:23:34;99968.09;;;17.95;39.16
11523;BME280;40093;43.224;27.910;2023-02-21T10:26:05;99957.34;;;18.09;38.73
11523;BME280;40093;43.224;27.910;2023-02-21T10:28:36;99961.59;;;18.14;38.62
11523;BME280;40093;43.224;27.910;2023-02-21T10:31:08;99955.94;;;18.17;38.58
11523;BME280;40093;43.224;27.910;2023-02-21T10:33:38;99914.72;;;18.12;38.44
11523;BME280;40093;43.224;27.910;2023-02-21T10:36:13;99939.09;;;18.37;38.44
11523;BME280;40093;43.224;27.910;2023-02-21T10:38:42;99932.56;;;18.56;38.27
11523;BME280;40093;43.224;27.910;2023-02-21T10:41:12;99911.16;;;18.53;38.00
11523;BME280;40093;43.224;27.910;2023-02-21T10:43:43;99912.75;;;18.79;37.78
11523;BME280;40093;43.224;27.910;2023-02-21T10:46:19;99892.47;;;18.91;37.42
11523;BME280;40093;43.224;27.910;2023-02-21T10:48:51;99899.81;;;19.10;37.27
11523;BME280;40093;43.224;27.910;2023-02-21T10:51:28;99894.56;;;19.24;37.34
11523;BME280;40093;43.224;27.910;2023-02-21T10:54:16;99882.50;;;19.40;36.72
11523;BME280;40093;43.224;27.910;2023-02-21T10:56:45;99913.88;;;19.44;36.77
11523;BME280;40093;43.224;27.910;2023-02-21T10:59:20;99892.53;;;19.37;36.39
11523;BME280;40093;43.224;27.910;2023-02-21T11:01:48;99875.03;;;19.37;36.20
11523;BME280;40093;43.224;27.910;2023-02-21T11:04:26;99872.06;;;19.53;36.05
11523;BME280;40093;43.224;27.910;2023-02-21T11:06:56;99875.97;;;19.68;35.60
11523;BME280;40093;43.224;27.910;2023-02-21T11:09:32;99888.75;;;19.78;34.79
11523;BME280;40093;43.224;27.910;2023-02-21T11:12:01;99894.06;;;19.85;34.79
11523;BME280;40093;43.224;27.910;2023-02-21T11:14:30;99899.44;;;19.92;34.80
11523;BME280;40093;43.224;27.910;2023-02-21T11:17:12;99896.66;;;19.79;35.08
11523;BME280;40093;43.224;27.910;2023-02-21T11:19:48;99884.75;;;19.79;34.67
11523;BME280;40093;43.224;27.910;2023-02-21T11:22:17;99894.03;;;19.76;34.50
11523;BME280;40093;43.224;27.910;2023-02-21T11:24:48;99858.47;;;19.55;34.39
11523;BME280;40093;43.224;27.910;2023-02-21T11:27:16;99893.16;;;19.66;34.59
11523;BME280;40093;43.224;27.910;2023-02-21T11:29:47;99880.94;;;19.73;33.93
11523;BME280;40093;43.224;27.910;2023-02-21T11:32:26;99861.72;;;19.75;33.50
11523;BME280;40093;43.224;27.910;2023-02-21T11:35:06;99869.13;;;19.69;33.44
11523;BME280;40093;43.224;27.910;2023-02-21T11:37:46;99877.44;;;19.60;33.52
11523;BME280;40093;43.224;27.910;2023-02-21T11:40:25;99858.22;;;19.62;33.07
11523;BME280;40093;43.224;27.910;2023-02-21T11:46:05;99857.47;;;19.49;32.86
11523;BME280;40093;43.224;27.910;2023-02-21T11:48:41;99866.34;;;19.35;33.01
11523;BME280;40093;43.224;27.910;2023-02-21T11:51:17;99857.75;;;19.29;33.12
11523;BME280;40093;43.224;27.910;2023-02-21T11:53:51;99874.03;;;19.31;33.14
11523;BME280;40093;43.224;27.910;2023-02-21T11:56:28;99876.16;;;19.27;33.28
11523;BME280;40093;43.224;27.910;2023-02-21T11:59:03;99876.16;;;19.27;33.61
11523;BME280;40093;43.224;27.910;2023-02-21T12:01:42;99859.31;;;19.30;33.64
11523;BME280;40093;43.224;27.910;2023-02-21T12:04:24;99866.03;;;19.33;33.52
11523;BME280;40093;43.224;27.910;2023-02-21T12:07:01;99855.72;;;19.30;33.40
11523;BME280;40093;43.224;27.910;2023-02-21T12:09:35;99865.00;;;19.27;33.35
11523;BME280;40093;43.224;27.910;2023-02-21T12:12:15;99842.59;;;19.30;33.39
11523;BME280;40093;43.224;27.910;2023-02-21T12:14:55;99849.19;;;19.24;33.08
11523;BME280;40093;43.224;27.910;2023-02-21T12:17:48;99851.66;;;19.22;33.32
11523;BME280;40093;43.224;27.910;2023-02-21T12:20:41;99844.69;;;19.26;33.20
11523;BME280;40093;43.224;27.910;2023-02-21T12:23:18;99845.81;;;19.29;33.33
11523;BME280;40093;43.224;27.910;2023-02-21T12:25:59;99827.72;;;19.33;33.04
11523;BME280;40093;43.224;27.910;2023-02-21T12:28:43;99816.69;;;19.30;32.58
11523;BME280;40093;43.224;27.910;2023-02-21T12:31:22;99824.97;;;19.21;32.42
11523;BME280;40093;43.224;27.910;2023-02-21T12:34:01;99814.22;;;19.32;31.87
11523;BME280;40093;43.224;27.910;2023-02-21T12:36:44;99811.09;;;19.30;31.84
11523;BME280;40093;43.224;27.910;2023-02-21T12:39:22;99816.69;;;19.17;31.63
11523;BME280;40093;43.224;27.910;2023-02-21T12:42:01;99811.00;;;19.21;31.67
11523;BME280;40093;43.224;27.910;2023-02-21T12:44:38;99812.34;;;19.16;31.85
11523;BME280;40093;43.224;27.910;2023-02-21T12:47:13;99800.19;;;19.10;31.86
11523;BME280;40093;43.224;27.910;2023-02-21T12:49:50;99806.22;;;19.09;32.06
11523;BME280;40093;43.224;27.910;2023-02-21T12:52:25;99813.69;;;19.12;32.19
11523;BME280;40093;43.224;27.910;2023-02-21T12:54:58;99801.75;;;19.11;32.20
11523;BME280;40093;43.224;27.910;2023-02-21T12:57:32;99792.94;;;19.13;31.60
11523;BME280;40093;43.224;27.910;2023-02-21T13:00:11;99794.84;;;19.03;31.44
11523;BME280;40093;43.224;27.910;2023-02-21T13:02:49;99794.09;;;19.03;31.02
11523;BME280;40093;43.224;27.910;2023-02-21T13:05:24;99792.97;;;18.88;31.06
11523;BME280;40093;43.224;27.910;2023-02-21T13:07:56;99795.88;;;18.97;31.05
11523;BME280;40093;43.224;27.910;2023-02-21T13:10:30;99776.59;;;18.90;31.17
11523;BME280;40093;43.224;27.910;2023-02-21T13:13:06;99794.53;;;18.89;31.39
11523;BME280;40093;43.224;27.910;2023-02-21T13:15:38;99765.69;;;18.83;31.69
11523;BME280;40093;43.224;27.910;2023-02-21T13:18:08;99800.38;;;18.82;31.83
11523;BME280;40093;43.224;27.910;2023-02-21T13:20:41;99802.13;;;18.76;31.99
11523;BME280;40093;43.224;27.910;2023-02-21T13:26:31;99805.41;;;18.74;32.08
11523;BME280;40093;43.224;27.910;2023-02-21T13:29:12;99795.13;;;18.71;32.18
11523;BME280;40093;43.224;27.910;2023-02-21T13:31:42;99801.50;;;18.72;32.17